Time;durP1;ratioP1;P1;durP2;ratioP2;P2;SDS_P1;SDS_P2;PMS_P1;PMS_P2;Temp;Humidity;BMP_temperature;BMP_pressure;BME280_temperature;BME280_humidity;BME280_pressure;Samples;Min_cycle;Max_cycle;Signal;HPM_P1;HPM_P2
2023/11/25 00:00:44;;;;;;;0.60;0.60;;;;;;;2.54;76.17;95965.00;1226418;75;2916448;-65
2023/11/25 00:03:17;;;;;;;0.70;0.70;;;;;;;2.64;75.46;95958.28;1225955;75;2919349;-66
2023/11/25 00:05:50;;;;;;;0.60;0.60;;;;;;;2.57;74.04;95950.53;1225669;75;2911897;-63
2023/11/25 00:08:26;;;;;;;0.60;0.60;;;;;;;2.49;74.63;95952.88;1225815;75;2918325;-63
2023/11/25 00:10:59;;;;;;;1.45;0.60;;;;;;;2.33;75.90;95948.66;1224468;75;2893341;-63
2023/11/25 00:13:32;;;;;;;1.05;0.60;;;;;;;2.47;75.70;95947.19;1224912;75;2913566;-64
2023/11/25 00:16:05;;;;;;;0.60;0.60;;;;;;;2.47;76.84;95949.13;1225488;75;2916786;-62
2023/11/25 00:18:38;;;;;;;0.70;0.70;;;;;;;2.48;77.20;95951.38;1225807;75;2915931;-59
2023/11/25 00:21:11;;;;;;;0.65;0.65;;;;;;;2.39;80.71;95940.66;1226912;75;2914762;-63
2023/11/25 00:23:47;;;;;;;1.05;0.80;;;;;;;2.28;84.44;95937.75;1224176;75;2920753;-64
2023/11/25 00:26:20;;;;;;;0.70;0.60;;;;;;;2.26;85.98;95940.16;1225955;75;2913109;-64
2023/11/25 00:28:52;;;;;;;0.55;0.55;;;;;;;2.19;87.38;95938.56;1225597;75;2913262;-62
2023/11/25 00:31:25;;;;;;;0.60;0.60;;;;;;;2.03;88.08;95944.38;1225694;75;2919965;-64
2023/11/25 00:33:58;;;;;;;0.90;0.65;;;;;;;1.85;91.23;95937.91;1224765;75;2921018;-62
2023/11/25 00:36:31;;;;;;;1.20;0.85;;;;;;;1.87;91.24;95948.22;1226279;75;2913727;-62
2023/11/25 00:39:07;;;;;;;0.70;0.70;;;;;;;1.93;90.35;95943.69;1225711;75;2924462;-62
2023/11/25 00:41:39;;;;;;;0.60;0.60;;;;;;;1.81;93.26;95950.06;1225763;75;2914482;-60
2023/11/25 00:44:12;;;;;;;0.60;0.60;;;;;;;1.73;94.56;95946.94;1226176;75;2912907;-61
2023/11/25 00:46:45;;;;;;;0.70;0.70;;;;;;;1.43;97.77;95956.84;1225636;67;2917174;-64
2023/11/25 00:49:19;;;;;;;1.40;1.20;;;;;;;1.33;97.09;95964.22;1225806;75;2914742;-61
2023/11/25 00:51:52;;;;;;;1.25;1.10;;;;;;;1.50;95.73;95964.63;1225834;75;2915015;-62
2023/11/25 00:54:29;;;;;;;1.55;1.20;;;;;;;1.41;96.67;95956.56;1225876;75;2922289;-62
2023/11/25 00:57:02;;;;;;;1.10;1.00;;;;;;;1.46;97.42;95961.31;1226018;75;2914514;-63
2023/11/25 00:59:34;;;;;;;1.10;1.00;;;;;;;1.37;94.95;95954.03;1224786;75;2918498;-62
2023/11/25 01:02:07;;;;;;;0.90;0.90;;;;;;;1.35;95.05;95951.06;1225960;75;2912941;-62
2023/11/25 01:04:43;;;;;;;1.20;1.10;;;;;;;1.36;94.97;95949.09;1226272;75;2910734;-60
2023/11/25 01:07:16;;;;;;;1.50;1.10;;;;;;;1.30;95.19;95950.91;1225744;75;2915003;-58
2023/11/25 01:09:52;;;;;;;1.10;1.00;;;;;;;1.23;95.15;95950.03;1225456;75;2942204;-64
2023/11/25 01:12:25;;;;;;;0.80;0.80;;;;;;;1.14;95.22;95946.63;1222775;75;2951079;-60
2023/11/25 01:14:58;;;;;;;1.05;0.80;;;;;;;1.11;93.22;95934.81;1225360;75;2918692;-62
2023/11/25 01:17:30;;;;;;;0.70;0.70;;;;;;;0.95;96.75;95930.50;1226630;75;2914581;-62
2023/11/25 01:20:04;;;;;;;0.80;0.70;;;;;;;1.02;95.81;95930.19;1225681;75;2916146;-60
2023/11/25 01:22:37;;;;;;;0.75;0.70;;;;;;;0.92;97.29;95920.66;1225192;75;2921103;-61
2023/11/25 01:25:13;;;;;;;0.70;0.60;;;;;;;0.90;96.21;95925.75;1226154;75;2921347;-59
2023/11/25 01:27:45;;;;;;;1.25;0.90;;;;;;;0.91;96.16;95935.31;1226172;75;2916546;-59
2023/11/25 01:30:19;;;;;;;0.70;0.70;;;;;;;0.82;98.75;95935.34;1224097;75;2913179;-60
2023/11/25 01:32:52;;;;;;;0.95;0.70;;;;;;;0.51;100.00;95932.88;1225595;75;2916353;-64
2023/11/25 01:35:25;;;;;;;1.35;0.90;;;;;;;0.14;100.00;95935.56;1225290;75;2911236;-63
2023/11/25 01:37:58;;;;;;;1.30;0.70;;;;;;;0.33;100.00;95928.97;1225416;75;2911110;-61
2023/11/25 01:40:33;;;;;;;0.90;0.70;;;;;;;0.66;100.00;95922.22;1226555;75;2921817;-61
2023/11/25 01:43:10;;;;;;;1.10;0.80;;;;;;;0.62;100.00;95925.06;1225679;75;2910730;-62
2023/11/25 01:45:44;;;;;;;1.15;0.85;;;;;;;0.64;100.00;95934.16;1225855;75;2915141;-62
2023/11/25 01:48:18;;;;;;;0.85;0.70;;;;;;;0.52;100.00;95935.09;1225362;75;2924951;-61
2023/11/25 01:50:52;;;;;;;0.70;0.70;;;;;;;0.53;100.00;95930.44;1225721;75;2920788;-60
2023/11/25 01:53:25;;;;;;;1.05;0.90;;;;;;;0.22;100.00;95920.63;1224924;75;2926062;-60
2023/11/25 01:56:01;;;;;;;2.15;0.70;;;;;;;0.30;100.00;95935.25;1225497;75;2927735;-61
2023/11/25 01:58:35;;;;;;;1.25;0.70;;;;;;;0.68;100.00;95942.09;1225376;75;2921227;-62
2023/11/25 02:01:08;;;;;;;1.35;0.90;;;;;;;0.37;100.00;95944.97;1225167;75;2915440;-64
2023/11/25 02:03:40;;;;;;;0.70;0.70;;;;;;;0.70;100.00;95938.94;1225920;75;2915915;-62
2023/11/25 02:06:13;;;;;;;2.15;1.30;;;;;;;0.50;100.00;95944.81;1224935;75;2943378;-62
2023/11/25 02:08:47;;;;;;;2.60;1.35;;;;;;;0.64;100.00;95952.28;1224672;75;2916121;-62
2023/11/25 02:11:25;;;;;;;1.75;1.05;;;;;;;0.59;100.00;95960.97;1225930;75;2922287;-62
2023/11/25 02:13:58;;;;;;;1.70;1.00;;;;;;;0.84;100.00;95955.25;1225542;75;2912921;-62
2023/11/25 02:16:31;;;;;;;1.30;0.75;;;;;;;0.77;100.00;95952.88;1226631;75;2923303;-62
2023/11/25 02:19:04;;;;;;;1.70;0.95;;;;;;;0.74;100.00;95953.00;1225761;75;2916593;-60
2023/11/25 02:21:41;;;;;;;1.70;1.20;;;;;;;0.52;100.00;95953.94;1225566;75;2920402;-62
2023/11/25 02:24:17;;;;;;;2.65;1.40;;;;;;;0.81;100.00;95945.34;1225879;75;2915065;-61
2023/11/25 02:26:50;;;;;;;3.45;1.95;;;;;;;0.58;100.00;95938.69;1226660;75;2915423;-63
2023/11/25 02:29:22;;;;;;;2.45;1.70;;;;;;;0.90;100.00;95949.25;1226764;75;2913264;-60
2023/11/25 02:31:56;;;;;;;2.45;1.60;;;;;;;0.68;100.00;95957.53;1225929;75;2921976;-62
2023/11/25 02:34:29;;;;;;;2.50;1.80;;;;;;;0.83;100.00;95951.03;1226502;75;2918963;-62
2023/11/25 02:37:02;;;;;;;1.55;1.25;;;;;;;0.67;100.00;95947.94;1226450;75;2917684;-64
2023/11/25 02:39:37;;;;;;;2.05;1.25;;;;;;;0.71;100.00;95945.84;1225926;75;2913787;-65
2023/11/25 02:42:12;;;;;;;1.10;1.00;;;;;;;0.90;100.00;95952.69;1226509;75;2913467;-59
2023/11/25 02:44:45;;;;;;;1.80;1.05;;;;;;;0.92;100.00;95954.94;1225623;75;2916166;-61
2023/11/25 02:47:18;;;;;;;1.20;1.00;;;;;;;1.04;100.00;95970.16;1225562;75;2922947;-63
2023/11/25 02:49:51;;;;;;;1.50;1.00;;;;;;;1.02;100.00;95964.47;1226140;75;2922473;-65
2023/11/25 02:52:26;;;;;;;0.80;0.80;;;;;;;0.88;100.00;95971.25;1225933;75;2913041;-62
2023/11/25 02:55:02;;;;;;;1.00;0.80;;;;;;;0.87;100.00;95969.00;1226130;75;2919637;-62
2023/11/25 02:57:35;;;;;;;1.20;0.90;;;;;;;0.97;100.00;95971.22;1225237;75;2917641;-60
2023/11/25 03:00:17;;;;;;;0.60;0.60;;;;;;;1.10;100.00;95968.34;1225417;83;2914743;-61
2023/11/25 03:02:51;;;;;;;0.80;0.80;;;;;;;1.02;100.00;95959.84;1225729;75;2916940;-62
2023/11/25 03:05:25;;;;;;;1.05;0.80;;;;;;;0.97;100.00;95970.50;1225742;75;2917973;-63
2023/11/25 03:07:57;;;;;;;1.30;1.05;;;;;;;0.83;100.00;95974.53;1225278;75;2915293;-63
2023/11/25 03:10:33;;;;;;;1.30;1.10;;;;;;;0.95;100.00;95972.88;1226701;75;2913475;-63
2023/11/25 03:13:06;;;;;;;3.30;1.45;;;;;;;0.70;100.00;95971.25;1225890;75;2915607;-64
2023/11/25 03:15:39;;;;;;;2.30;1.35;;;;;;;0.73;100.00;95959.59;1224965;75;2916470;-65
2023/11/25 03:18:12;;;;;;;1.45;1.10;;;;;;;0.68;100.00;95960.97;1226395;75;2918731;-62
2023/11/25 03:20:45;;;;;;;2.40;1.50;;;;;;;0.75;100.00;95974.13;1225168;75;2917248;-62
2023/11/25 03:23:18;;;;;;;2.90;1.65;;;;;;;0.62;100.00;95984.28;1225855;75;2917228;-61
2023/11/25 03:25:54;;;;;;;3.40;2.00;;;;;;;0.51;100.00;95994.78;1224797;83;2914911;-63
2023/11/25 03:28:26;;;;;;;2.80;1.80;;;;;;;0.56;100.00;95994.19;1225677;75;2913032;-64
2023/11/25 03:30:59;;;;;;;2.20;1.40;;;;;;;0.51;100.00;95986.72;1225689;75;2909295;-62
2023/11/25 03:33:32;;;;;;;1.35;1.05;;;;;;;0.22;100.00;95998.66;1225241;75;2920931;-61
2023/11/25 03:36:05;;;;;;;1.75;1.10;;;;;;;0.12;100.00;95999.81;1225150;75;2920365;-62
2023/11/25 03:38:39;;;;;;;1.55;1.00;;;;;;;0.04;100.00;96002.06;1225197;75;2922379;-65
2023/11/25 03:41:15;;;;;;;1.00;0.90;;;;;;;0.09;100.00;96006.09;1226627;75;2912096;-62
2023/11/25 03:43:49;;;;;;;0.95;0.70;;;;;;;0.12;100.00;96008.66;1225672;75;2922076;-59
2023/11/25 03:46:23;;;;;;;1.30;1.10;;;;;;;0.06;100.00;96009.69;1225744;75;2918909;-62
2023/11/25 03:48:55;;;;;;;1.85;1.00;;;;;;;-0.25;100.00;96005.88;1225524;75;2918118;-63
2023/11/25 03:51:28;;;;;;;1.85;1.15;;;;;;;-0.33;100.00;95996.59;1225102;75;2913367;-63
2023/11/25 03:54:01;;;;;;;1.00;0.90;;;;;;;-0.17;100.00;96000.97;1226619;75;2910235;-61
2023/11/25 03:56:36;;;;;;;0.90;0.80;;;;;;;-0.19;100.00;95997.22;1222815;75;2924077;-65
2023/11/25 03:59:09;;;;;;;2.70;1.05;;;;;;;-0.77;100.00;96006.72;1225422;75;2915714;-62
2023/11/25 04:01:43;;;;;;;1.90;1.00;;;;;;;-0.81;100.00;96006.88;1225439;75;2920016;-61
2023/11/25 04:04:15;;;;;;;1.45;1.25;;;;;;;-0.61;100.00;95998.44;1225133;75;2912108;-61
2023/11/25 04:06:50;;;;;;;1.50;1.00;;;;;;;-0.65;100.00;95992.44;1224352;75;2913315;-63
2023/11/25 04:09:23;;;;;;;1.10;1.00;;;;;;;-0.54;100.00;96000.84;1224115;75;2911584;-61
2023/11/25 04:11:58;;;;;;;1.40;0.90;;;;;;;-0.51;100.00;96001.91;1224667;75;2917272;-63
2023/11/25 04:14:32;;;;;;;1.05;0.85;;;;;;;-0.47;100.00;95992.53;1225195;75;2913200;-62
2023/11/25 04:17:05;;;;;;;1.90;1.40;;;;;;;-1.02;100.00;95991.53;1225290;75;2916791;-64
2023/11/25 04:19:38;;;;;;;1.55;1.00;;;;;;;-0.69;100.00;96016.03;1223143;75;2917134;-60
2023/11/25 04:22:11;;;;;;;1.75;1.00;;;;;;;-0.64;100.00;96018.13;1224627;75;2911622;-63
2023/11/25 04:24:45;;;;;;;1.80;1.20;;;;;;;-0.62;100.00;96015.75;1221123;75;2917885;-65
2023/11/25 04:27:21;;;;;;;1.30;1.10;;;;;;;-0.76;100.00;96016.28;1195218;75;4830699;-64
2023/11/25 04:29:54;;;;;;;1.35;1.05;;;;;;;-0.78;100.00;96019.41;1222220;75;2914334;-63
2023/11/25 04:32:27;;;;;;;1.70;1.30;;;;;;;-0.66;100.00;96020.50;1223627;75;2919801;-65
2023/11/25 04:35:00;;;;;;;1.50;1.00;;;;;;;-0.67;100.00;96022.47;1225171;75;2915609;-60
2023/11/25 04:37:33;;;;;;;1.95;1.50;;;;;;;-0.93;100.00;96023.81;1225166;75;2917057;-60
2023/11/25 04:40:11;;;;;;;1.75;1.50;;;;;;;-0.88;100.00;96010.56;1224351;75;2936845;-64
2023/11/25 04:42:48;;;;;;;3.70;2.00;;;;;;;-1.14;100.00;96012.63;1223665;75;2916406;-63
2023/11/25 04:45:21;;;;;;;3.30;1.80;;;;;;;-0.89;100.00;96001.00;1225630;75;2920186;-62
2023/11/25 04:47:54;;;;;;;3.70;1.90;;;;;;;-0.80;100.00;96011.03;1225665;75;2917132;-62
2023/11/25 04:50:28;;;;;;;2.40;1.90;;;;;;;-1.17;100.00;96021.56;1223448;75;2925507;-63
2023/11/25 04:53:01;;;;;;;2.10;1.60;;;;;;;-0.74;100.00;96016.59;1225937;75;2910645;-63
2023/11/25 04:55:34;;;;;;;1.50;1.40;;;;;;;-0.60;100.00;96015.31;1225322;75;2913367;-61
2023/11/25 04:58:09;;;;;;;1.80;1.40;;;;;;;-0.92;100.00;96007.25;1225003;75;2919405;-61
2023/11/25 05:00:42;;;;;;;1.45;1.30;;;;;;;-0.82;100.00;96023.41;1225469;75;2912559;-61
2023/11/25 05:03:15;;;;;;;2.25;1.40;;;;;;;-0.98;100.00;96022.44;1224597;75;2920853;-60
2023/11/25 05:05:48;;;;;;;1.40;1.30;;;;;;;-0.67;100.00;96032.47;1223728;75;2913029;-62
2023/11/25 05:08:21;;;;;;;1.65;1.40;;;;;;;-0.67;100.00;96030.53;1224975;75;2915555;-62
2023/11/25 05:10:54;;;;;;;1.85;1.20;;;;;;;-0.68;100.00;96026.31;1224591;75;2918220;-64
2023/11/25 05:13:29;;;;;;;1.10;1.00;;;;;;;-0.66;100.00;96032.00;1224276;75;2919843;-62
2023/11/25 05:16:03;;;;;;;1.50;1.05;;;;;;;-0.69;100.00;96042.91;1224622;75;2921626;-59
2023/11/25 05:18:36;;;;;;;2.90;1.55;;;;;;;-1.05;100.00;96049.56;1224263;75;2917884;-62
2023/11/25 05:21:09;;;;;;;3.30;1.75;;;;;;;-0.86;100.00;96061.16;1225591;75;2914147;-62
2023/11/25 05:23:42;;;;;;;1.80;1.30;;;;;;;-0.55;100.00;96061.19;1224666;75;2917143;-64
2023/11/25 05:26:16;;;;;;;1.85;1.35;;;;;;;-0.49;100.00;96064.78;1224746;75;2918735;-64
2023/11/25 05:28:52;;;;;;;1.20;1.10;;;;;;;-0.52;100.00;96064.94;1225129;75;2916379;-63
2023/11/25 05:31:25;;;;;;;4.70;2.20;;;;;;;-1.00;100.00;96051.66;1224944;75;2918998;-61
2023/11/25 05:33:58;;;;;;;2.10;1.40;;;;;;;-0.72;100.00;96063.34;1223848;75;2919415;-60
2023/11/25 05:36:31;;;;;;;1.85;1.45;;;;;;;-0.83;100.00;96073.72;1225017;75;2935941;-61
2023/11/25 05:39:06;;;;;;;2.10;1.50;;;;;;;-0.98;100.00;96067.34;1224524;75;2919035;-63
2023/11/25 05:41:39;;;;;;;2.05;1.60;;;;;;;-0.79;100.00;96082.41;1224341;75;2920511;-65
2023/11/25 05:44:15;;;;;;;5.05;1.80;;;;;;;-1.10;100.00;96095.75;1225185;75;2927573;-62
2023/11/25 05:46:47;;;;;;;1.70;1.60;;;;;;;-0.78;100.00;96086.56;1224160;75;2916226;-61
2023/11/25 05:49:20;;;;;;;3.05;2.00;;;;;;;-0.83;100.00;96084.47;1225002;75;2924202;-62
2023/11/25 05:51:54;;;;;;;1.70;1.60;;;;;;;-0.63;100.00;96086.06;1225296;75;2882220;-60
2023/11/25 05:54:27;;;;;;;1.70;1.40;;;;;;;-0.62;100.00;96087.56;1223702;75;2919448;-57
2023/11/25 05:57:00;;;;;;;1.55;1.35;;;;;;;-0.57;100.00;96093.13;1225030;75;2915364;-61
2023/11/25 05:59:35;;;;;;;1.50;1.20;;;;;;;-0.57;100.00;96092.38;1224490;75;2916387;-63
2023/11/25 06:02:08;;;;;;;1.75;1.30;;;;;;;-0.43;100.00;96095.28;1223313;75;2921395;-63
2023/11/25 06:04:42;;;;;;;1.75;1.30;;;;;;;-0.40;100.00;96100.97;1224648;75;2918740;-64
2023/11/25 06:07:15;;;;;;;1.50;1.20;;;;;;;-0.31;100.00;96099.09;1224437;75;2917511;-61
2023/11/25 06:09:47;;;;;;;1.25;1.00;;;;;;;-0.27;100.00;96107.75;1224196;75;2924989;-62
2023/11/25 06:12:20;;;;;;;1.05;0.90;;;;;;;-0.31;100.00;96101.03;1224161;75;2915914;-62
2023/11/25 06:14:58;;;;;;;1.10;1.00;;;;;;;-0.29;100.00;96104.78;1224428;75;2920723;-61
2023/11/25 06:17:30;;;;;;;1.00;1.00;;;;;;;-0.39;100.00;96099.78;1225205;75;2922856;-63
2023/11/25 06:20:04;;;;;;;1.30;1.10;;;;;;;-0.29;100.00;96093.25;1223651;75;2945981;-60
2023/11/25 06:22:38;;;;;;;1.50;1.10;;;;;;;-0.26;100.00;96106.56;1223620;75;2927495;-63
2023/11/25 06:25:11;;;;;;;1.50;1.40;;;;;;;-0.52;100.00;96100.63;1225058;75;2920250;-62
2023/11/25 06:27:44;;;;;;;1.50;1.35;;;;;;;-0.31;100.00;96115.22;1223737;75;2928621;-62
2023/11/25 06:30:21;;;;;;;1.50;1.20;;;;;;;-0.18;100.00;96123.19;1224264;75;2929617;-63
2023/11/25 06:32:54;;;;;;;1.55;1.20;;;;;;;-0.27;100.00;96125.81;1224401;75;2918656;-63
2023/11/25 06:35:27;;;;;;;1.70;1.45;;;;;;;-0.20;100.00;96133.63;1223976;75;2920430;-64
2023/11/25 06:38:00;;;;;;;1.75;1.35;;;;;;;-0.37;100.00;96133.09;1224611;75;2922879;-63
2023/11/25 06:40:34;;;;;;;1.40;1.30;;;;;;;-0.26;100.00;96138.84;1224779;75;2917672;-61
2023/11/25 06:43:07;;;;;;;2.60;1.90;;;;;;;-0.46;100.00;96149.94;1223624;75;2924784;-63
2023/11/25 06:45:44;;;;;;;2.25;1.75;;;;;;;-0.04;100.00;96152.25;1223650;75;2921268;-59
2023/11/25 06:48:19;;;;;;;2.80;1.80;;;;;;;-0.20;100.00;96160.53;1224337;75;2925584;-64
2023/11/25 06:50:52;;;;;;;2.60;1.70;;;;;;;-0.08;100.00;96162.38;1225101;75;2913508;-64
2023/11/25 06:53:25;;;;;;;2.35;1.70;;;;;;;-0.04;100.00;96165.69;1224105;75;2928876;-61
2023/11/25 06:56:00;;;;;;;2.00;1.80;;;;;;;-0.18;100.00;96163.53;1223057;75;2923611;-65
2023/11/25 06:58:33;;;;;;;6.15;4.15;;;;;;;-0.04;100.00;96171.06;1224459;75;2920100;-60
2023/11/25 07:01:09;;;;;;;5.35;4.20;;;;;;;-0.22;100.00;96166.34;1222816;75;2921856;-62
2023/11/25 07:03:42;;;;;;;5.65;4.00;;;;;;;0.09;100.00;96176.34;1223302;75;2915348;-62
2023/11/25 07:06:17;;;;;;;5.85;4.05;;;;;;;-0.05;100.00;96190.31;1223728;75;2922879;-62
2023/11/25 07:08:52;;;;;;;6.05;4.25;;;;;;;0.32;100.00;96185.88;1224246;75;2926277;-63
2023/11/25 07:11:25;;;;;;;10.40;6.70;;;;;;;0.73;100.00;96173.13;1224637;75;2926130;-63
2023/11/25 07:13:58;;;;;;;7.80;5.40;;;;;;;0.80;100.00;96180.91;1223341;75;2914672;-62
2023/11/25 07:16:33;;;;;;;4.85;3.35;;;;;;;0.52;100.00;96193.56;1225260;75;2921249;-64
2023/11/25 07:19:08;;;;;;;9.95;6.65;;;;;;;0.87;100.00;96185.28;1224347;75;2923400;-62
2023/11/25 07:21:40;;;;;;;3.45;2.35;;;;;;;1.09;100.00;96197.88;1224587;67;2917054;-62
2023/11/25 07:24:14;;;;;;;5.70;2.10;;;;;;;1.23;100.00;96202.66;1224684;75;2920559;-63
2023/11/25 07:26:51;;;;;;;1.80;1.15;;;;;;;1.43;97.86;96202.97;1224267;75;2929474;-63
2023/11/25 07:29:28;;;;;;;0.90;0.90;;;;;;;1.70;97.97;96204.88;1225178;75;2919445;-62
2023/11/25 07:32:04;;;;;;;0.85;0.80;;;;;;;1.71;95.20;96205.66;1224863;75;2912330;-62
2023/11/25 07:34:37;;;;;;;1.25;1.15;;;;;;;1.87;93.03;96221.47;1224023;75;2906023;-62
2023/11/25 07:37:10;;;;;;;1.40;1.10;;;;;;;4.03;83.95;96214.66;1225260;75;2929924;-64
2023/11/25 07:39:44;;;;;;;2.80;2.20;;;;;;;4.66;76.26;96217.13;1224195;75;2920335;-65
2023/11/25 07:42:17;;;;;;;2.10;1.50;;;;;;;4.87;75.21;96223.31;1224287;75;2925688;-63
2023/11/25 07:44:49;;;;;;;3.05;1.40;;;;;;;4.97;74.10;96237.50;1224506;75;2918122;-64
2023/11/25 07:47:26;;;;;;;1.90;1.40;;;;;;;4.35;73.88;96242.75;1224603;75;2917746;-63
2023/11/25 07:49:59;;;;;;;1.10;0.90;;;;;;;4.83;73.46;96258.00;1224214;75;2922972;-63
2023/11/25 07:52:32;;;;;;;0.60;0.60;;;;;;;5.04;72.16;96256.09;1222061;75;2917328;-63
2023/11/25 07:55:05;;;;;;;1.10;0.80;;;;;;;5.48;71.19;96255.94;1224777;75;2925164;-62
2023/11/25 07:57:38;;;;;;;0.65;0.60;;;;;;;5.30;70.68;96277.91;1223723;75;2925049;-62
2023/11/25 08:00:15;;;;;;;0.65;0.65;;;;;;;4.91;73.74;96281.56;1224646;75;2933750;-61
2023/11/25 08:02:55;;;;;;;0.70;0.60;;;;;;;5.09;73.88;96280.56;1224621;75;2919776;-62
2023/11/25 08:05:28;;;;;;;1.10;0.60;;;;;;;5.12;74.22;96289.72;1224868;75;2914810;-60
2023/11/25 08:08:03;;;;;;;1.20;0.50;;;;;;;5.11;75.86;96291.69;1225084;75;2919818;-62
2023/11/25 08:10:35;;;;;;;1.25;0.60;;;;;;;4.28;74.20;96305.44;1223926;75;2926608;-65
2023/11/25 08:13:08;;;;;;;0.70;0.50;;;;;;;3.87;70.27;96288.94;1222654;75;2920465;-62
2023/11/25 08:15:41;;;;;;;0.65;0.50;;;;;;;3.81;71.60;96288.84;1223424;75;2927404;-62
2023/11/25 08:18:18;;;;;;;0.80;0.70;;;;;;;3.61;70.11;96278.66;1223693;75;2914568;-60
2023/11/25 08:20:51;;;;;;;0.50;0.50;;;;;;;3.83;69.92;96272.91;1223799;75;2923895;-64
2023/11/25 08:23:24;;;;;;;0.55;0.40;;;;;;;4.59;69.69;96271.72;1223112;75;2921869;-63
2023/11/25 08:25:57;;;;;;;0.50;0.40;;;;;;;5.05;67.76;96261.06;1224126;75;2921831;-62
2023/11/25 08:28:30;;;;;;;0.70;0.50;;;;;;;5.44;66.39;96279.81;1224791;75;2921156;-63
2023/11/25 08:31:03;;;;;;;0.45;0.45;;;;;;;5.04;63.95;96278.53;1223914;75;2922576;-61
2023/11/25 08:33:38;;;;;;;0.40;0.40;;;;;;;4.60;61.57;96282.09;1223425;75;2929686;-60
2023/11/25 08:36:13;;;;;;;1.05;0.65;;;;;;;4.28;61.37;96275.63;1222875;75;2924982;-62
2023/11/25 08:38:46;;;;;;;0.50;0.50;;;;;;;3.89;56.21;96283.09;1222978;75;2928714;-61
2023/11/25 08:41:22;;;;;;;1.15;0.90;;;;;;;3.78;56.99;96292.50;1223074;75;2927064;-63
2023/11/25 08:43:58;;;;;;;0.50;0.50;;;;;;;4.19;57.32;96294.72;1223373;75;2926918;-61
2023/11/25 08:46:33;;;;;;;1.30;0.60;;;;;;;4.44;56.33;96307.69;1224147;75;2919182;-63
2023/11/25 08:49:10;;;;;;;2.90;0.80;;;;;;;4.42;56.65;96307.41;1223885;75;2918282;-63
2023/11/25 08:51:46;;;;;;;1.55;0.60;;;;;;;4.14;52.47;96314.31;1223344;75;2936729;-62
2023/11/25 08:54:20;;;;;;;0.60;0.60;;;;;;;3.85;53.29;96329.31;1222991;75;2923733;-60
2023/11/25 08:56:54;;;;;;;0.90;0.65;;;;;;;3.77;53.06;96334.28;1223284;75;2903302;-63
2023/11/25 08:59:27;;;;;;;2.30;0.60;;;;;;;4.20;54.19;96323.28;1223350;75;2926294;-63
2023/11/25 09:02:04;;;;;;;0.60;0.60;;;;;;;3.75;54.24;96322.44;1223196;75;2927120;-62
2023/11/25 09:04:42;;;;;;;0.40;0.40;;;;;;;3.73;54.10;96314.81;1221706;75;2927328;-63
2023/11/25 09:07:15;;;;;;;1.05;0.50;;;;;;;3.93;53.88;96327.72;1223078;75;2926924;-61
2023/11/25 09:09:49;;;;;;;0.80;0.60;;;;;;;4.31;54.03;96347.13;1222332;75;2926761;-62
2023/11/25 09:12:22;;;;;;;2.65;0.70;;;;;;;3.94;53.95;96329.19;1223329;75;2929913;-63
2023/11/25 09:14:55;;;;;;;0.80;0.55;;;;;;;3.84;52.16;96330.50;1222048;75;2926985;-61
2023/11/25 09:17:28;;;;;;;3.00;0.60;;;;;;;3.78;53.83;96349.34;1222081;75;2929963;-62
2023/11/25 09:20:04;;;;;;;0.45;0.45;;;;;;;4.22;53.37;96348.69;1223229;75;2927188;-62
2023/11/25 09:22:37;;;;;;;3.95;0.55;;;;;;;3.94;52.26;96355.53;1222574;75;2927937;-64
2023/11/25 09:25:12;;;;;;;0.70;0.60;;;;;;;3.62;51.10;96352.44;1222530;75;2943795;-61
2023/11/25 09:27:45;;;;;;;0.95;0.50;;;;;;;4.30;52.00;96362.63;1222310;75;2938153;-62
2023/11/25 09:30:19;;;;;;;1.60;0.60;;;;;;;4.61;50.99;96374.97;1222433;75;2924136;-64
2023/11/25 09:32:53;;;;;;;0.60;0.50;;;;;;;4.48;52.96;96364.41;1223541;75;2924336;-63
2023/11/25 09:35:29;;;;;;;1.30;0.90;;;;;;;4.16;50.82;96366.03;1223170;75;2929544;-65
2023/11/25 09:38:02;;;;;;;1.35;0.60;;;;;;;4.04;51.80;96365.06;1223087;75;2930530;-63
2023/11/25 09:40:35;;;;;;;2.20;0.70;;;;;;;5.21;50.19;96381.13;1222778;75;2931158;-62
2023/11/25 09:43:08;;;;;;;1.10;0.60;;;;;;;4.91;50.61;96376.47;1222033;75;2927587;-64
2023/11/25 09:45:41;;;;;;;0.80;0.50;;;;;;;4.70;49.92;96370.22;1223555;75;2925133;-63
2023/11/25 09:48:14;;;;;;;0.55;0.50;;;;;;;4.45;50.49;96370.78;1223258;75;2926786;-63
2023/11/25 09:50:50;;;;;;;1.55;0.60;;;;;;;5.02;49.89;96359.63;1221407;75;2930631;-63
2023/11/25 09:53:32;;;;;;;0.60;0.45;;;;;;;4.63;50.72;96354.31;1223311;75;2919356;-64
2023/11/25 09:56:06;;;;;;;0.55;0.55;;;;;;;4.87;50.15;96356.19;1222887;75;2931646;-62
2023/11/25 09:58:40;;;;;;;0.40;0.40;;;;;;;4.94;48.72;96350.38;1222335;75;2926456;-61
2023/11/25 10:01:13;;;;;;;0.55;0.55;;;;;;;5.19;49.71;96365.28;1223040;75;2932911;-61
2023/11/25 10:03:46;;;;;;;0.40;0.40;;;;;;;5.67;47.92;96369.66;1221467;75;2930238;-63
2023/11/25 10:06:22;;;;;;;0.85;0.50;;;;;;;4.97;47.99;96344.00;1219970;75;2946547;-66
2023/11/25 10:08:55;;;;;;;0.80;0.40;;;;;;;5.47;49.04;96340.53;1221921;75;2929602;-60
2023/11/25 10:11:32;;;;;;;3.00;0.35;;;;;;;5.68;48.00;96350.19;1221439;75;2923182;-63
2023/11/25 10:14:06;;;;;;;0.55;0.55;;;;;;;4.95;48.96;96346.44;1221819;75;2929299;-64
2023/11/25 10:16:41;;;;;;;0.50;0.50;;;;;;;5.67;48.83;96345.97;1222010;75;2926860;-63
2023/11/25 10:19:25;;;;;;;0.50;0.40;;;;;;;6.11;47.47;96345.03;1220714;75;2946551;-63
2023/11/25 10:22:01;;;;;;;1.65;0.60;;;;;;;6.36;48.10;96342.81;1222108;75;2924606;-65
2023/11/25 10:24:34;;;;;;;0.80;0.50;;;;;;;5.72;48.34;96352.69;1221506;75;2916948;-61
2023/11/25 10:27:08;;;;;;;1.60;0.50;;;;;;;6.37;48.03;96344.28;1221907;75;2931784;-61
2023/11/25 10:29:41;;;;;;;0.50;0.30;;;;;;;6.05;47.89;96340.75;1222119;75;2932072;-60
2023/11/25 10:32:14;;;;;;;0.50;0.50;;;;;;;5.71;48.19;96337.63;1221978;75;2927928;-62
2023/11/25 10:34:50;;;;;;;0.95;0.50;;;;;;;6.32;48.12;96348.44;1219319;75;2926760;-64
2023/11/25 10:37:26;;;;;;;1.15;0.40;;;;;;;5.98;48.73;96348.09;1220876;75;3040086;-64
2023/11/25 10:39:59;;;;;;;0.40;0.40;;;;;;;6.34;48.30;96348.72;1220194;75;3028849;-64
2023/11/25 10:42:32;;;;;;;0.30;0.30;;;;;;;6.80;47.57;96341.72;1218365;75;3276753;-65
2023/11/25 10:45:07;;;;;;;0.90;0.50;;;;;;;5.72;48.90;96339.09;1223009;75;2937520;-63
2023/11/25 10:47:39;;;;;;;1.75;0.30;;;;;;;5.55;49.12;96342.34;1222319;75;2931458;-61
2023/11/25 10:50:13;;;;;;;1.55;0.50;;;;;;;5.72;49.50;96344.53;1222973;75;2931614;-63
2023/11/25 10:52:49;;;;;;;0.50;0.50;;;;;;;5.64;50.52;96341.50;1222112;75;2926844;-63
2023/11/25 10:55:25;;;;;;;0.55;0.50;;;;;;;5.79;48.47;96349.56;1222173;75;2923985;-65
2023/11/25 10:58:02;;;;;;;0.65;0.65;;;;;;;6.54;48.49;96344.44;1222347;75;2928033;-65
2023/11/25 11:00:35;;;;;;;1.35;0.60;;;;;;;6.06;48.71;96344.97;1222750;75;2934283;-62
2023/11/25 11:03:12;;;;;;;0.80;0.75;;;;;;;5.84;48.84;96337.28;1221208;75;2926109;-61
2023/11/25 11:05:58;;;;;;;0.65;0.50;;;;;;;5.62;49.41;96335.78;1222330;75;2928988;-67
2023/11/25 11:08:40;;;;;;;0.80;0.40;;;;;;;5.09;50.43;96325.94;1222006;75;2937286;-63
2023/11/25 11:11:20;;;;;;;0.50;0.40;;;;;;;5.47;49.25;96333.13;1222652;75;2922870;-63
2023/11/25 11:14:00;;;;;;;0.50;0.40;;;;;;;7.21;47.98;96334.09;1222943;75;2912667;-64
2023/11/25 11:16:40;;;;;;;1.55;0.55;;;;;;;6.31;48.28;96332.63;1222907;75;2926503;-62
2023/11/25 11:19:13;;;;;;;0.85;0.55;;;;;;;6.93;48.18;96333.91;1222233;75;2919974;-62
2023/11/25 11:21:52;;;;;;;0.40;0.40;;;;;;;6.21;48.37;96332.03;1221485;75;2933707;-65
2023/11/25 11:24:33;;;;;;;;;;;;;;;6.00;50.07;96323.16;1224078;75;2924479;-61
2023/11/25 11:27:14;;;;;;;1.75;0.35;;;;;;;7.50;47.26;96331.53;1223058;75;2925345;-64
2023/11/25 11:29:57;;;;;;;0.50;0.50;;;;;;;7.15;46.25;96319.72;1221981;75;2929484;-63
2023/11/25 11:32:36;;;;;;;0.70;0.50;;;;;;;7.44;47.75;96335.00;1222587;75;2944524;-63
2023/11/25 11:35:12;;;;;;;1.20;0.40;;;;;;;7.40;46.60;96344.59;1223314;75;2928665;-63
2023/11/25 11:37:52;;;;;;;0.50;0.50;;;;;;;7.65;47.45;96334.84;1223940;75;2922956;-64
2023/11/25 11:40:29;;;;;;;0.60;0.60;;;;;;;7.76;45.53;96336.88;1223653;75;2931278;-63
2023/11/25 11:43:08;;;;;;;1.05;0.40;;;;;;;4.68;50.01;96352.91;1223328;75;2930527;-66
2023/11/25 11:45:43;;;;;;;0.85;0.65;;;;;;;5.23;48.85;96346.88;1223411;75;2920605;-63
2023/11/25 11:48:17;;;;;;;0.85;0.50;;;;;;;4.46;51.58;96334.31;1223463;75;2924281;-64
2023/11/25 11:50:54;;;;;;;1.65;0.60;;;;;;;4.39;51.99;96348.25;1222538;75;2936749;-65